Time;durP1;ratioP1;P1;durP2;ratioP2;P2;SDS_P1;SDS_P2;PMS_P1;PMS_P2;Temp;Humidity;BMP_temperature;BMP_pressure;BME280_temperature;BME280_humidity;BME280_pressure;Samples;Min_cycle;Max_cycle;Signal;HPM_P1;HPM_P2
2023/10/23 00:00:18;;;;;;;10.50;5.70;;;;;;;10.96;100.00;99288.09;109030;1259;71619;-69
2023/10/23 00:03:26;;;;;;;9.80;5.30;;;;;;;10.95;100.00;99294.34;109082;1260;70294;-70
2023/10/23 00:06:15;;;;;;;11.20;4.90;;;;;;;10.93;100.00;99293.50;109019;1260;72643;-68
2023/10/23 00:09:03;;;;;;;10.40;5.60;;;;;;;10.88;100.00;99293.72;108993;1259;58124;-67
2023/10/23 00:11:51;;;;;;;12.00;5.60;;;;;;;10.83;100.00;99293.08;109091;1256;58795;-66
2023/10/23 00:14:39;;;;;;;10.20;5.30;;;;;;;10.80;100.00;99290.78;109223;1258;71819;-69
2023/10/23 00:17:26;;;;;;;9.90;4.90;;;;;;;10.77;100.00;99295.79;109132;1257;66564;-68
2023/10/23 00:20:15;;;;;;;10.00;4.90;;;;;;;10.75;100.00;99299.02;109071;1257;71125;-70
2023/10/23 00:23:02;;;;;;;10.80;5.30;;;;;;;10.73;100.00;99301.85;109084;1257;57974;-69
2023/10/23 00:25:50;;;;;;;13.40;5.60;;;;;;;10.70;100.00;99305.80;109077;1257;59990;-69
2023/10/23 00:28:37;;;;;;;12.80;6.00;;;;;;;10.70;100.00;99312.02;109198;1257;73593;-68
2023/10/23 00:31:25;;;;;;;10.30;5.10;;;;;;;10.71;100.00;99315.66;109162;1258;67587;-67
2023/10/23 00:34:13;;;;;;;11.40;5.50;;;;;;;10.73;100.00;99317.09;109070;1257;73299;-68
2023/10/23 00:37:03;;;;;;;9.90;4.80;;;;;;;10.77;100.00;99319.80;109048;1257;60829;-67
2023/10/23 00:39:50;;;;;;;12.00;5.10;;;;;;;10.79;100.00;99321.54;109142;1257;60467;-68
2023/10/23 00:42:38;;;;;;;10.20;4.70;;;;;;;10.80;100.00;99326.39;109099;1257;72647;-68
2023/10/23 00:45:26;;;;;;;9.40;4.50;;;;;;;10.82;100.00;99329.63;109106;1257;67922;-68
2023/10/23 00:48:14;;;;;;;8.40;4.20;;;;;;;10.82;100.00;99329.81;109094;1256;72346;-70
2023/10/23 00:51:03;;;;;;;7.90;3.60;;;;;;;10.83;100.00;99336.42;109008;1262;57610;-67
2023/10/23 00:53:51;;;;;;;8.30;3.90;;;;;;;10.82;100.00;99336.52;109085;1257;60018;-70
2023/10/23 00:56:39;;;;;;;7.80;3.40;;;;;;;10.83;100.00;99340.13;109041;1257;73012;-70
2023/10/23 00:59:27;;;;;;;7.10;2.80;;;;;;;10.83;100.00;99332.52;109204;1257;65590;-69
2023/10/23 01:02:15;;;;;;;7.00;3.00;;;;;;;10.82;100.00;99331.21;109166;1257;73756;-70
2023/10/23 01:05:04;;;;;;;7.70;3.00;;;;;;;10.82;100.00;99330.33;109183;1257;59314;-69
2023/10/23 01:07:52;;;;;;;6.70;2.50;;;;;;;10.80;100.00;99333.02;109166;1256;60492;-71
2023/10/23 01:10:40;;;;;;;7.10;2.70;;;;;;;10.74;100.00;99335.46;109036;1258;72786;-69
2023/10/23 01:13:28;;;;;;;7.30;2.50;;;;;;;10.69;100.00;99335.55;109047;1257;66657;-70
2023/10/23 01:16:15;;;;;;;8.20;3.40;;;;;;;10.64;100.00;99342.36;109031;1257;72651;-70
2023/10/23 01:19:04;;;;;;;6.40;2.50;;;;;;;10.55;100.00;99338.40;109170;1257;59440;-70
2023/10/23 01:21:52;;;;;;;6.50;2.60;;;;;;;10.55;100.00;99346.59;109110;1257;60133;-70
2023/10/23 01:24:43;;;;;;;9.50;2.70;;;;;;;10.52;100.00;99343.95;109090;1256;73755;-70
2023/10/23 01:27:31;;;;;;;10.30;2.40;;;;;;;10.51;100.00;99347.94;109149;1256;67003;-73
2023/10/23 01:30:19;;;;;;;6.40;2.30;;;;;;;10.52;100.00;99348.92;109088;1257;71166;-71
2023/10/23 01:33:08;;;;;;;8.00;2.40;;;;;;;10.52;100.00;99349.49;109106;1257;58515;-70
2023/10/23 01:35:56;;;;;;;6.10;2.20;;;;;;;10.46;100.00;99344.30;109054;1261;58721;-70
2023/10/23 01:38:45;;;;;;;7.40;2.90;;;;;;;10.46;100.00;99350.53;109111;1257;73950;-69
2023/10/23 01:41:32;;;;;;;6.80;2.20;;;;;;;10.41;100.00;99353.26;109111;1257;66339;-69
2023/10/23 01:44:20;;;;;;;5.50;2.00;;;;;;;10.38;100.00;99356.34;109235;1257;73740;-69
2023/10/23 01:47:11;;;;;;;6.60;2.30;;;;;;;10.37;100.00;99358.38;109098;1257;59239;-70
2023/10/23 01:49:59;;;;;;;6.80;2.20;;;;;;;10.39;100.00;99361.08;109179;1257;60349;-69
2023/10/23 01:52:47;;;;;;;7.70;2.40;;;;;;;10.41;100.00;99361.60;109065;1257;73046;-68
2023/10/23 01:55:36;;;;;;;8.40;2.50;;;;;;;10.43;100.00;99364.14;109115;1257;67433;-69
2023/10/23 01:58:24;;;;;;;8.50;2.40;;;;;;;10.45;100.00;99366.96;109088;1260;73367;-69
2023/10/23 02:01:24;;;;;;;7.90;2.40;;;;;;;10.47;100.00;99362.69;109084;1257;59495;-70
2023/10/23 02:04:13;;;;;;;7.20;2.40;;;;;;;10.48;100.00;99361.69;109109;1257;60523;-68
2023/10/23 02:07:02;;;;;;;9.10;2.40;;;;;;;10.47;100.00;99358.10;109090;1257;73108;-69
2023/10/23 02:09:50;;;;;;;6.30;2.40;;;;;;;10.46;100.00;99361.91;109108;1257;66877;-71
2023/10/23 02:12:38;;;;;;;7.70;2.40;;;;;;;10.44;100.00;99369.13;109187;1256;72661;-68
2023/10/23 02:15:26;;;;;;;9.10;3.20;;;;;;;10.44;100.00;99370.64;109016;1257;58327;-68
2023/10/23 02:18:14;;;;;;;9.50;3.10;;;;;;;10.43;100.00;99371.02;109103;1257;60048;-68
2023/10/23 02:21:01;;;;;;;10.40;2.70;;;;;;;10.43;100.00;99374.02;109137;1256;73106;-68
2023/10/23 02:23:49;;;;;;;8.00;2.60;;;;;;;10.44;100.00;99373.10;109100;1257;68024;-70
2023/10/23 02:26:43;;;;;;;7.10;2.70;;;;;;;10.44;100.00;99378.53;109162;1257;71720;-67
2023/10/23 02:29:31;;;;;;;8.40;2.90;;;;;;;10.44;100.00;99378.06;109042;1257;60335;-68
2023/10/23 02:32:18;;;;;;;7.00;3.20;;;;;;;10.45;100.00;99378.84;109250;1257;61322;-68
2023/10/23 02:35:06;;;;;;;8.00;3.30;;;;;;;10.45;100.00;99379.56;109081;1257;74239;-69
2023/10/23 02:37:53;;;;;;;8.00;3.00;;;;;;;10.44;100.00;99378.75;109132;1257;66834;-68
2023/10/23 02:40:52;;;;;;;7.60;2.90;;;;;;;10.45;100.00;99380.05;109082;1257;73935;-69
2023/10/23 02:43:40;;;;;;;9.60;2.90;;;;;;;10.46;100.00;99378.34;108997;1257;58233;-69
2023/10/23 02:46:28;;;;;;;10.30;3.70;;;;;;;10.47;100.00;99379.92;109119;1256;60599;-71
2023/10/23 02:49:17;;;;;;;7.20;2.80;;;;;;;10.48;100.00;99375.17;109171;1257;73824;-69
2023/10/23 02:52:05;;;;;;;7.60;3.00;;;;;;;10.49;100.00;99378.27;109144;1256;68135;-69
2023/10/23 02:54:54;;;;;;;11.10;3.00;;;;;;;10.50;100.00;99378.23;109123;1257;73639;-70
2023/10/23 02:57:41;;;;;;;8.40;3.00;;;;;;;10.50;100.00;99379.83;109218;1255;58061;-67
2023/10/23 03:00:29;;;;;;;9.50;3.00;;;;;;;10.49;100.00;99380.08;109183;1256;60447;-69
2023/10/23 03:03:17;;;;;;;7.90;2.80;;;;;;;10.48;100.00;99377.12;109279;1257;71824;-67
2023/10/23 03:06:05;;;;;;;9.30;3.00;;;;;;;10.48;100.00;99376.09;109168;1255;67744;-68
2023/10/23 03:08:55;;;;;;;8.50;2.90;;;;;;;10.47;100.00;99375.41;109174;1256;70635;-67
2023/10/23 03:11:42;;;;;;;7.90;3.10;;;;;;;10.46;100.00;99377.87;109261;1256;58038;-68
2023/10/23 03:14:30;;;;;;;8.60;3.40;;;;;;;10.44;100.00;99378.56;109160;1258;59293;-67
2023/10/23 03:17:18;;;;;;;6.60;2.90;;;;;;;10.44;100.00;99380.91;109280;1256;71448;-68
2023/10/23 03:20:07;;;;;;;7.70;2.90;;;;;;;10.42;100.00;99380.54;109185;1255;68024;-66
2023/10/23 03:22:54;;;;;;;6.70;2.40;;;;;;;10.42;100.00;99384.29;109261;1257;72663;-68
2023/10/23 03:25:42;;;;;;;8.30;3.20;;;;;;;10.39;100.00;99386.08;109159;1257;58336;-67
2023/10/23 03:28:30;;;;;;;8.60;2.70;;;;;;;10.33;100.00;99392.64;109094;1256;60074;-67
2023/10/23 03:31:18;;;;;;;9.80;3.50;;;;;;;10.26;100.00;99393.00;109121;1256;72760;-65
2023/10/23 03:34:06;;;;;;;6.80;2.80;;;;;;;10.22;100.00;99391.91;109193;1256;66717;-69
2023/10/23 03:36:54;;;;;;;7.30;3.20;;;;;;;10.15;100.00;99397.31;109123;1256;73666;-68
2023/10/23 03:39:42;;;;;;;9.30;4.00;;;;;;;10.08;100.00;99397.92;109154;1256;60314;-70
2023/10/23 03:42:30;;;;;;;8.40;3.60;;;;;;;10.00;100.00;99399.34;109162;1256;58877;-64
2023/10/23 03:45:18;;;;;;;7.20;3.20;;;;;;;9.93;100.00;99402.60;109185;1258;71869;-65
2023/10/23 03:48:07;;;;;;;10.20;3.20;;;;;;;9.84;100.00;99405.30;109132;1256;67523;-68
2023/10/23 03:50:59;;;;;;;8.40;3.40;;;;;;;9.74;100.00;99404.60;109080;1256;72675;-69
2023/10/23 03:53:47;;;;;;;8.50;3.70;;;;;;;9.69;100.00;99412.80;109033;1256;60562;-68
2023/10/23 03:56:35;;;;;;;8.10;3.70;;;;;;;9.61;100.00;99411.46;109056;1256;58446;-66
2023/10/23 03:59:23;;;;;;;7.00;3.50;;;;;;;9.55;100.00;99413.91;109144;1256;73109;-67
2023/10/23 04:02:11;;;;;;;8.10;3.50;;;;;;;9.50;100.00;99420.55;109243;1256;67977;-70
2023/10/23 04:04:58;;;;;;;8.60;3.70;;;;;;;9.45;100.00;99416.41;109041;1257;73240;-68
2023/10/23 04:07:46;;;;;;;9.00;3.70;;;;;;;9.39;100.00;99418.77;109023;1256;58317;-69
2023/10/23 04:10:34;;;;;;;10.20;3.70;;;;;;;9.35;100.00;99421.26;109194;1256;58778;-68
2023/10/23 04:13:22;;;;;;;7.30;3.40;;;;;;;9.30;100.00;99423.45;109109;1255;74203;-68
2023/10/23 04:16:09;;;;;;;10.20;3.90;;;;;;;9.25;100.00;99423.85;109088;1256;66481;-68
2023/10/23 04:18:58;;;;;;;8.20;3.30;;;;;;;9.20;100.00;99426.23;109067;1256;71391;-69
2023/10/23 04:21:45;;;;;;;7.70;3.20;;;;;;;9.16;100.00;99427.98;109141;1256;59337;-67
2023/10/23 04:24:33;;;;;;;10.50;3.60;;;;;;;9.12;100.00;99433.40;109149;1257;59001;-69
2023/10/23 04:27:22;;;;;;;9.30;3.70;;;;;;;9.08;100.00;99425.39;109220;1256;70762;-70
2023/10/23 04:30:11;;;;;;;8.80;3.50;;;;;;;9.04;100.00;99428.55;109200;1256;67869;-69
2023/10/23 04:32:58;;;;;;;9.90;3.90;;;;;;;9.00;100.00;99431.14;109062;1257;71139;-70
2023/10/23 04:35:50;;;;;;;7.90;3.70;;;;;;;8.99;100.00;99432.35;108998;1257;57430;-70
2023/10/23 04:38:37;;;;;;;8.90;3.40;;;;;;;8.98;100.00;99436.86;109139;1256;59039;-66
2023/10/23 04:41:25;;;;;;;8.80;3.40;;;;;;;8.99;100.00;99439.97;109104;1256;73009;-67
2023/10/23 04:44:13;;;;;;;10.50;3.20;;;;;;;9.01;100.00;99432.88;109147;1256;67773;-64
2023/10/23 04:47:01;;;;;;;9.40;3.20;;;;;;;9.03;100.00;99430.57;109073;1257;73447;-70
2023/10/23 04:49:50;;;;;;;8.70;3.20;;;;;;;9.06;100.00;99441.39;109020;1256;59364;-66
2023/10/23 04:52:39;;;;;;;9.40;3.70;;;;;;;9.06;100.00;99448.09;109023;1257;60385;-68
2023/10/23 04:55:34;;;;;;;6.90;3.10;;;;;;;9.06;100.00;99451.40;109041;1257;70771;-68
2023/10/23 04:58:22;;;;;;;9.70;3.30;;;;;;;9.05;100.00;99453.80;108997;1256;69328;-68
2023/10/23 05:01:20;;;;;;;11.70;3.90;;;;;;;9.06;100.00;99456.92;109023;1256;72413;-68
2023/10/23 05:04:08;;;;;;;10.80;3.30;;;;;;;9.06;100.00;99462.95;109011;1257;58242;-70
2023/10/23 05:06:57;;;;;;;10.10;3.90;;;;;;;9.07;100.00;99459.62;107488;1256;1015006;-66
2023/10/23 05:09:44;;;;;;;10.20;3.60;;;;;;;9.11;100.00;99466.98;108984;1258;73380;-66
2023/10/23 05:12:35;;;;;;;7.90;3.60;;;;;;;9.14;100.00;99470.04;109110;1256;67796;-71
2023/10/23 05:15:24;;;;;;;9.80;3.20;;;;;;;9.17;100.00;99475.31;109090;1257;72713;-66
2023/10/23 05:18:11;;;;;;;7.40;3.30;;;;;;;9.21;100.00;99477.64;109077;1256;58280;-67
2023/10/23 05:21:07;;;;;;;8.00;3.10;;;;;;;9.26;100.00;99479.04;109078;1256;60356;-65
2023/10/23 05:23:54;;;;;;;9.80;3.80;;;;;;;9.29;100.00;99480.90;109064;1257;73145;-65
2023/10/23 05:26:42;;;;;;;7.80;3.20;;;;;;;9.31;100.00;99486.22;108934;1256;222524;-66
2023/10/23 05:29:29;;;;;;;10.20;3.70;;;;;;;9.31;100.00;99490.83;109141;1256;72841;-66
2023/10/23 05:32:17;;;;;;;11.00;4.40;;;;;;;9.29;100.00;99491.83;109110;1256;59477;-68
2023/10/23 05:35:05;;;;;;;7.40;3.50;;;;;;;9.31;100.00;99504.45;109096;1257;59108;-68
2023/10/23 05:37:53;;;;;;;8.90;3.40;;;;;;;9.30;100.00;99508.71;109019;1257;73866;-67
2023/10/23 05:40:41;;;;;;;8.90;3.60;;;;;;;9.28;100.00;99508.77;109124;1256;67050;-64
2023/10/23 05:43:29;;;;;;;9.90;3.40;;;;;;;9.28;100.00;99508.03;109032;1256;72708;-67
2023/10/23 05:46:20;;;;;;;8.30;3.60;;;;;;;9.29;100.00;99509.91;109001;1257;58229;-69
2023/10/23 05:49:09;;;;;;;12.30;4.00;;;;;;;9.27;100.00;99515.23;109160;1256;58839;-66
2023/10/23 05:51:56;;;;;;;10.50;3.50;;;;;;;9.24;100.00;99515.48;109156;1256;73301;-65
2023/10/23 05:54:44;;;;;;;9.40;3.60;;;;;;;9.23;100.00;99522.85;109171;1256;66942;-68
2023/10/23 05:57:32;;;;;;;11.30;3.90;;;;;;;9.23;100.00;99526.38;108937;1256;72304;-69
2023/10/23 06:00:20;;;;;;;8.60;3.10;;;;;;;9.25;100.00;99534.14;109122;1256;59616;-67
2023/10/23 06:03:08;;;;;;;9.40;3.60;;;;;;;9.27;100.00;99532.23;109211;1256;60052;-65
2023/10/23 06:05:55;;;;;;;8.40;3.70;;;;;;;9.28;100.00;99534.21;109143;1257;72062;-71
2023/10/23 06:08:43;;;;;;;8.10;3.70;;;;;;;9.34;100.00;99537.47;109136;1257;67853;-69
2023/10/23 06:11:31;;;;;;;8.70;3.40;;;;;;;9.38;100.00;99536.11;109086;1256;71481;-70
2023/10/23 06:14:18;;;;;;;10.60;4.00;;;;;;;9.40;100.00;99542.34;109184;1256;58238;-68
2023/10/23 06:17:06;;;;;;;11.70;4.30;;;;;;;9.38;100.00;99542.98;109116;1257;60190;-67
2023/10/23 06:19:54;;;;;;;10.30;4.20;;;;;;;9.45;100.00;99545.63;109209;1256;73116;-70
2023/10/23 06:22:42;;;;;;;7.70;3.30;;;;;;;9.58;100.00;99551.16;109255;1256;68955;-67
2023/10/23 06:25:31;;;;;;;10.30;3.80;;;;;;;9.66;100.00;99554.35;109014;1257;73510;-66
2023/10/23 06:28:18;;;;;;;9.30;3.40;;;;;;;9.74;100.00;99550.36;109074;1256;58307;-65
2023/10/23 06:31:11;;;;;;;8.60;3.70;;;;;;;9.79;100.00;99552.21;109123;1257;58138;-66
2023/10/23 06:33:59;;;;;;;9.60;3.70;;;;;;;9.79;100.00;99552.77;109043;1256;73421;-69
2023/10/23 06:36:47;;;;;;;9.50;3.80;;;;;;;9.83;100.00;99557.23;109082;1257;67723;-68
2023/10/23 06:39:35;;;;;;;8.10;3.90;;;;;;;9.90;100.00;99561.63;109164;1256;72456;-69
2023/10/23 06:42:26;;;;;;;12.30;4.60;;;;;;;9.95;100.00;99566.73;109170;1256;58290;-66
2023/10/23 06:45:14;;;;;;;10.80;4.50;;;;;;;9.93;100.00;99564.77;109117;1257;59988;-66
2023/10/23 06:48:03;;;;;;;11.40;4.40;;;;;;;9.95;100.00;99562.65;109115;1256;71301;-66
2023/10/23 06:50:51;;;;;;;9.60;4.50;;;;;;;9.98;100.00;99563.98;109081;1257;66771;-67
2023/10/23 06:53:42;;;;;;;8.70;3.60;;;;;;;10.12;100.00;99568.81;109007;1257;71517;-68
2023/10/23 06:56:30;;;;;;;11.10;3.80;;;;;;;10.32;100.00;99553.02;109132;1256;59452;-65
2023/10/23 06:59:17;;;;;;;8.40;3.90;;;;;;;10.56;100.00;99560.05;109152;1256;60446;-65
2023/10/23 07:02:05;;;;;;;7.90;3.40;;;;;;;10.72;100.00;99557.61;109206;1256;71751;-68
2023/10/23 07:04:53;;;;;;;8.60;3.60;;;;;;;10.81;100.00;99559.30;109175;1256;68982;-65
2023/10/23 07:07:40;;;;;;;7.90;3.20;;;;;;;10.87;98.81;99560.70;109058;1256;74012;-66
2023/10/23 07:10:31;;;;;;;9.60;3.70;;;;;;;11.03;97.93;99564.84;108990;1257;59428;-67
2023/10/23 07:13:19;;;;;;;9.40;4.30;;;;;;;11.96;96.05;99568.83;109073;1257;60528;-69
2023/10/23 07:16:10;;;;;;;7.70;3.60;;;;;;;13.55;90.79;99574.54;109062;1257;72703;-68
2023/10/23 07:18:57;;;;;;;6.80;3.10;;;;;;;15.06;83.72;99565.48;109230;1256;66523;-65
2023/10/23 07:21:45;;;;;;;10.20;3.70;;;;;;;16.42;77.93;99567.41;109165;1256;73867;-67
2023/10/23 07:24:33;;;;;;;7.80;2.90;;;;;;;17.64;71.57;99566.77;108415;1256;1002874;-66
2023/10/23 07:27:21;;;;;;;7.50;2.60;;;;;;;18.64;66.80;99561.80;109151;1256;60034;-67
2023/10/23 07:30:10;;;;;;;9.00;3.00;;;;;;;19.81;63.78;99559.46;109084;1256;72831;-66
2023/10/23 07:32:59;;;;;;;7.30;3.20;;;;;;;20.55;59.48;99562.73;109106;1256;66577;-68
2023/10/23 07:35:47;;;;;;;7.10;2.40;;;;;;;21.02;54.35;99563.75;109166;1256;73898;-70
2023/10/23 07:38:44;;;;;;;7.20;2.30;;;;;;;21.57;51.16;99567.80;109110;1257;57287;-71
2023/10/23 07:41:32;;;;;;;7.50;2.90;;;;;;;21.65;50.76;99569.42;109107;1256;59794;-67
2023/10/23 07:44:20;;;;;;;6.70;2.30;;;;;;;21.97;49.42;99569.36;109055;1256;72748;-70
2023/10/23 07:47:08;;;;;;;6.60;2.40;;;;;;;22.33;47.15;99571.47;109238;1256;68013;-69
2023/10/23 07:49:56;;;;;;;8.20;2.50;;;;;;;22.71;46.52;99571.27;109051;1257;73878;-66
2023/10/23 07:52:44;;;;;;;9.10;2.30;;;;;;;23.25;44.86;99571.39;109180;1256;57485;-70
2023/10/23 07:55:31;;;;;;;6.90;2.10;;;;;;;22.93;44.73;99576.88;109104;1257;60373;-67
2023/10/23 07:58:19;;;;;;;6.70;2.20;;;;;;;21.69;45.63;99581.73;109044;1256;72993;-68
2023/10/23 08:01:12;;;;;;;6.90;2.10;;;;;;;20.09;48.65;99588.44;109145;1256;67919;-68
2023/10/23 08:04:00;;;;;;;6.90;2.30;;;;;;;18.99;51.50;99587.01;109128;1257;72659;-68
2023/10/23 08:06:48;;;;;;;6.90;2.60;;;;;;;17.99;54.54;99592.73;108914;1260;58142;-65
2023/10/23 08:09:36;;;;;;;7.30;2.60;;;;;;;18.41;55.39;99588.45;108947;1260;60270;-67
2023/10/23 08:12:24;;;;;;;8.00;2.50;;;;;;;19.99;52.76;99588.52;108925;1260;73969;-66
2023/10/23 08:15:14;;;;;;;6.40;2.20;;;;;;;20.66;50.60;99589.81;109033;1260;67729;-67
2023/10/23 08:18:01;;;;;;;8.50;2.90;;;;;;;21.26;47.69;99592.60;108803;1260;71078;-67
2023/10/23 08:20:49;;;;;;;7.80;3.00;;;;;;;21.87;45.34;99593.84;108908;1260;57897;-67
2023/10/23 08:23:38;;;;;;;7.90;3.00;;;;;;;20.77;46.50;99597.19;108932;1260;58750;-71
2023/10/23 08:26:26;;;;;;;8.10;2.70;;;;;;;20.95;47.11;99597.88;108857;1260;72811;-70
2023/10/23 08:29:15;;;;;;;7.50;2.40;;;;;;;21.97;45.76;99596.46;108806;1260;67958;-70
2023/10/23 08:32:05;;;;;;;7.00;2.30;;;;;;;21.91;45.99;99600.36;108921;1260;71456;-69
2023/10/23 08:34:53;;;;;;;7.40;2.60;;;;;;;22.52;44.04;99594.23;108856;1261;57354;-67
2023/10/23 08:37:41;;;;;;;7.90;2.70;;;;;;;22.64;43.00;99598.88;108959;1256;61391;-68
2023/10/23 08:40:29;;;;;;;10.10;2.50;;;;;;;21.92;44.02;99608.11;109226;1256;73296;-69
2023/10/23 08:43:17;;;;;;;8.10;2.60;;;;;;;22.07;44.33;99608.73;109062;1256;65541;-68
2023/10/23 08:46:05;;;;;;;6.90;2.40;;;;;;;23.10;42.71;99596.91;109122;1256;72472;-67
2023/10/23 08:48:53;;;;;;;8.60;2.40;;;;;;;23.15;41.85;99600.99;109154;1256;57606;-69
2023/10/23 08:51:41;;;;;;;8.90;2.50;;;;;;;22.89;41.93;99604.70;109065;1257;61077;-67
2023/10/23 08:54:29;;;;;;;7.80;2.40;;;;;;;22.21;43.15;99604.71;109185;1256;71684;-67
2023/10/23 08:57:19;;;;;;;6.50;2.20;;;;;;;22.47;42.66;99604.80;109129;1257;68995;-67
2023/10/23 09:00:08;;;;;;;8.60;2.60;;;;;;;22.99;42.20;99594.45;109061;1256;72431;-68
2023/10/23 09:02:58;;;;;;;7.70;2.60;;;;;;;23.02;42.02;99592.14;109117;1256;57263;-69
2023/10/23 09:05:46;;;;;;;7.20;2.80;;;;;;;23.28;42.18;99593.05;109210;1256;61365;-68
2023/10/23 09:08:35;;;;;;;8.70;3.00;;;;;;;23.79;40.24;99596.42;109052;1257;70939;-67
2023/10/23 09:11:44;;;;;;;7.90;2.90;;;;;;;24.68;39.57;99595.68;109094;1257;68871;-68
2023/10/23 09:14:35;;;;;;;8.20;2.80;;;;;;;25.50;37.52;99595.27;109149;1256;71622;-71
2023/10/23 09:17:23;;;;;;;7.50;2.60;;;;;;;26.15;36.12;99600.77;109177;1256;57664;-68
2023/10/23 09:20:21;;;;;;;8.20;1.90;;;;;;;26.73;34.97;99602.15;109184;1257;58768;-68
2023/10/23 09:23:12;;;;;;;7.20;2.00;;;;;;;26.66;34.60;99603.45;109182;1256;74335;-68
2023/10/23 09:26:00;;;;;;;8.00;2.50;;;;;;;26.05;34.69;99605.27;109135;1256;67751;-69
2023/10/23 09:28:50;;;;;;;7.70;2.40;;;;;;;26.58;34.16;99608.16;109026;1256;72585;-68
2023/10/23 09:31:40;;;;;;;7.10;2.20;;;;;;;27.13;33.45;99603.88;109068;1257;57372;-71
2023/10/23 09:34:31;;;;;;;7.90;2.00;;;;;;;27.59;32.04;99600.86;109179;1256;59025;-66
2023/10/23 09:37:19;;;;;;;7.10;1.80;;;;;;;27.89;31.28;99601.22;109076;1256;73308;-70
2023/10/23 09:40:09;;;;;;;5.80;1.40;;;;;;;28.55;31.43;99601.56;109223;1256;68639;-66
2023/10/23 09:43:00;;;;;;;6.40;1.60;;;;;;;28.88;30.68;99602.14;109126;1256;73547;-69
2023/10/23 09:45:48;;;;;;;7.50;1.40;;;;;;;28.96;30.37;99600.49;109174;1256;59017;-69
2023/10/23 09:48:40;;;;;;;6.00;1.60;;;;;;;29.19;29.81;99595.98;108981;1256;58805;-68
2023/10/23 09:51:36;;;;;;;6.50;1.40;;;;;;;29.82;29.18;99596.38;109109;1256;73230;-68
2023/10/23 09:54:30;;;;;;;7.30;1.90;;;;;;;30.27;27.83;99600.40;109136;1256;67868;-68
2023/10/23 09:57:26;;;;;;;6.90;1.40;;;;;;;30.59;27.14;99594.31;109052;1257;72279;-68
2023/10/23 10:00:14;;;;;;;6.70;1.70;;;;;;;29.30;28.61;99593.91;108998;1256;57283;-68
2023/10/23 10:03:08;;;;;;;6.30;1.40;;;;;;;29.17;28.71;99592.08;109226;1256;60311;-68
2023/10/23 10:06:02;;;;;;;6.70;1.70;;;;;;;27.47;30.09;99593.81;109119;1256;74066;-67
2023/10/23 10:08:51;;;;;;;6.70;1.40;;;;;;;27.32;30.99;99593.63;109049;1256;68756;-68
2023/10/23 10:11:44;;;;;;;7.40;1.70;;;;;;;26.09;32.68;99595.55;109139;1256;72678;-66
2023/10/23 10:14:33;;;;;;;7.80;1.80;;;;;;;26.12;33.28;99596.58;109141;1256;57814;-67
2023/10/23 10:17:20;;;;;;;6.60;1.60;;;;;;;26.62;31.99;99592.11;109054;1257;60758;-69
2023/10/23 10:20:10;;;;;;;5.10;1.20;;;;;;;25.85;32.65;99586.55;109089;1256;72209;-69
2023/10/23 10:23:03;;;;;;;6.90;1.60;;;;;;;24.78;33.99;99585.23;109031;1256;67851;-69
2023/10/23 10:25:52;;;;;;;5.50;1.40;;;;;;;25.12;34.26;99588.32;109167;1256;71230;-67
2023/10/23 10:28:40;;;;;;;6.20;1.70;;;;;;;25.80;33.14;99584.34;109113;1256;57851;-68
2023/10/23 10:31:28;;;;;;;6.40;1.60;;;;;;;26.68;31.98;99581.16;109157;1257;60087;-68
2023/10/23 10:34:20;;;;;;;7.40;1.80;;;;;;;27.32;30.82;99578.02;109095;1256;74249;-67
2023/10/23 10:37:22;;;;;;;6.40;1.80;;;;;;;27.55;30.48;99573.52;109092;1257;67930;-67
2023/10/23 10:40:12;;;;;;;7.00;1.70;;;;;;;28.21;29.90;99569.63;109052;1257;72710;-67
2023/10/23 10:43:05;;;;;;;6.90;1.40;;;;;;;28.61;28.81;99574.45;109088;1257;57328;-67
2023/10/23 10:45:55;;;;;;;6.00;1.30;;;;;;;29.32;27.67;99567.40;109108;1256;61460;-67
2023/10/23 10:48:46;;;;;;;7.50;1.40;;;;;;;29.38;26.78;99568.86;109059;1256;73209;-66
2023/10/23 10:51:34;;;;;;;5.90;1.20;;;;;;;29.27;27.08;99563.66;109183;1256;69131;-69
2023/10/23 10:54:22;;;;;;;5.80;1.30;;;;;;;29.45;27.08;99569.59;109121;1256;72724;-66
2023/10/23 10:57:15;;;;;;;5.70;1.40;;;;;;;29.29;26.73;99566.81;109202;1256;57378;-72
2023/10/23 11:00:04;;;;;;;5.80;1.20;;;;;;;29.08;27.60;99568.79;109065;1257;59694;-67
2023/10/23 11:02:51;;;;;;;6.70;1.10;;;;;;;29.11;27.10;99567.06;109111;1257;73334;-67
2023/10/23 11:05:47;;;;;;;7.40;2.00;;;;;;;28.99;27.46;99563.02;109012;1257;68867;-67
2023/10/23 11:08:35;;;;;;;6.20;1.40;;;;;;;28.81;27.93;99567.86;109100;1257;72589;-68
2023/10/23 11:11:22;;;;;;;6.30;1.50;;;;;;;28.65;27.70;99570.05;109024;1260;57327;-69
2023/10/23 11:14:10;;;;;;;6.40;1.30;;;;;;;28.32;27.88;99565.57;109206;1257;60827;-67
2023/10/23 11:16:58;;;;;;;6.70;1.40;;;;;;;27.82;28.52;99566.80;109078;1256;72889;-67
2023/10/23 11:19:46;;;;;;;6.60;1.40;;;;;;;27.05;29.55;99576.27;109036;1256;69145;-67
2023/10/23 11:22:37;;;;;;;7.30;1.40;;;;;;;25.69;30.93;99587.05;109190;1256;72679;-66
2023/10/23 11:25:25;;;;;;;5.40;1.20;;;;;;;24.68;32.50;99587.64;109015;1259;57955;-65
2023/10/23 11:28:12;;;;;;;5.80;1.40;;;;;;;24.04;33.00;99590.14;109173;1256;60054;-66
2023/10/23 11:31:00;;;;;;;7.40;1.40;;;;;;;23.77;33.81;99590.00;109193;1256;73253;-68
2023/10/23 11:33:54;;;;;;;6.70;1.50;;;;;;;23.70;33.95;99592.91;109195;1256;68955;-68
2023/10/23 11:36:42;;;;;;;6.40;1.50;;;;;;;23.77;34.38;99583.90;109060;1257;72469;-68
2023/10/23 11:39:30;;;;;;;6.00;1.20;;;;;;;23.88;34.56;99584.55;109196;1260;57299;-68
2023/10/23 11:42:17;;;;;;;5.50;1.30;;;;;;;24.25;34.61;99583.73;109089;1257;60253;-67
2023/10/23 11:45:07;;;;;;;6.50;1.40;;;;;;;23.94;34.56;99581.58;109205;1257;74086;-68
2023/10/23 11:47:55;;;;;;;7.00;1.30;;;;;;;23.64;35.18;99585.26;109102;1257;67289;-70
2023/10/23 11:50:44;;;;;;;4.60;1.10;;;;;;;23.59;35.23;99581.10;109216;1257;73678;-69
2023/10/23 11:53:33;;;;;;;5.00;1.20;;;;;;;23.53;34.99;99579.23;109072;1257;57325;-67
2023/10/23 11:56:21;;;;;;;6.80;1.40;;;;;;;23.28;35.38;99578.55;109113;1257;59129;-68
2023/10/23 11:59:13;;;;;;;8.00;1.40;;;;;;;22.56;36.56;99580.06;109114;1257;71722;-67
2023/10/23 12:02:02;;;;;;;6.60;1.40;;;;;;;22.24;38.09;99584.02;109046;1257;68941;-66
2023/10/23 12:04:49;;;;;;;6.70;1.50;;;;;;;22.13;37.53;99578.27;109094;1256;71224;-67
2023/10/23 12:07:47;;;;;;;6.20;1.80;;;;;;;21.69;38.44;99580.11;109047;1257;58502;-68
2023/10/23 12:10:37;;;;;;;7.00;1.60;;;;;;;21.37;38.83;99580.66;109198;1257;60395;-65
2023/10/23 12:13:25;;;;;;;7.60;1.90;;;;;;;20.92;39.72;99581.13;109189;1256;71493;-70
2023/10/23 12:16:13;;;;;;;6.70;1.70;;;;;;;20.58;40.62;99577.72;109038;1257;67952;-68
2023/10/23 12:19:01;;;;;;;5.80;1.40;;;;;;;20.28;40.92;99583.95;109198;1256;70311;-68
2023/10/23 12:21:48;;;;;;;6.30;1.70;;;;;;;20.01;41.48;99589.89;109123;1257;58927;-69
2023/10/23 12:24:36;;;;;;;6.70;1.80;;;;;;;19.77;42.22;99586.61;109036;1257;60570;-69
2023/10/23 12:27:23;;;;;;;8.40;2.10;;;;;;;19.40;42.96;99592.52;109123;1257;73276;-69
2023/10/23 12:30:12;;;;;;;7.50;1.50;;;;;;;19.30;43.51;99593.37;109043;1256;67233;-68
2023/10/23 12:33:05;;;;;;;7.20;1.70;;;;;;;19.16;43.47;99592.32;109111;1256;72731;-65
2023/10/23 12:36:10;;;;;;;9.50;2.00;;;;;;;18.88;44.08;99596.57;109198;1257;57868;-69
2023/10/23 12:38:57;;;;;;;6.60;2.00;;;;;;;18.78;44.94;99600.54;109226;1256;60389;-70
2023/10/23 12:41:45;;;;;;;6.10;1.90;;;;;;;18.64;44.85;99597.48;109155;1256;72793;-68
2023/10/23 12:44:33;;;;;;;6.80;1.80;;;;;;;18.27;45.23;99606.17;109019;1257;67622;-70
2023/10/23 12:47:22;;;;;;;7.60;1.50;;;;;;;17.95;46.35;99608.08;109123;1257;71187;-71
2023/10/23 12:50:10;;;;;;;7.00;1.50;;;;;;;17.69;47.14;99604.94;109101;1257;58023;-68
2023/10/23 12:52:58;;;;;;;6.50;2.20;;;;;;;17.50;47.65;99604.79;109156;1257;61089;-69
2023/10/23 12:55:47;;;;;;;7.90;2.50;;;;;;;17.37;48.50;99606.92;109058;1257;73026;-67
2023/10/23 12:58:35;;;;;;;6.90;2.30;;;;;;;17.14;48.08;99606.11;109224;1256;67751;-66
2023/10/23 13:01:23;;;;;;;6.50;1.80;;;;;;;17.03;48.74;99602.92;109095;1257;71080;-66